Time;durP1;ratioP1;P1;durP2;ratioP2;P2;SDS_P1;SDS_P2;PMS_P1;PMS_P2;Temp;Humidity;BMP_temperature;BMP_pressure;BME280_temperature;BME280_humidity;BME280_pressure;Samples;Min_cycle;Max_cycle;Signal;HPM_P1;HPM_P2
2020/12/14 00:02:11;;;;;;;0.20;0.20;;;;;;;;;;5016171;28;20198;-74
2020/12/14 00:04:38;;;;;;;1.90;1.17;;;;;;;;;;5018841;28;20277;-74
2020/12/14 00:07:04;;;;;;;0.20;0.20;;;;;;;;;;5017036;28;20273;-73
2020/12/14 00:09:31;;;;;;;0.50;0.50;;;;;;;;;;5010782;28;20218;-73
2020/12/14 00:11:57;;;;;;;0.10;0.10;;;;;;;;;;5002718;28;20445;-73
2020/12/14 00:14:23;;;;;;;0.20;0.20;;;;;;;;;;5002865;28;20603;-73
2020/12/14 00:16:50;;;;;;;0.20;0.20;;;;;;;;;;5005287;28;20212;-74
2020/12/14 00:19:17;;;;;;;1.17;1.17;;;;;;;;;;5016741;28;20408;-73
2020/12/14 00:21:43;;;;;;;0.20;0.20;;;;;;;;;;5034230;28;20213;-74
2020/12/14 00:24:09;;;;;;;9.63;8.70;;;;;;;;;;5005307;28;20202;-73
2020/12/14 00:26:35;;;;;;;3.30;1.13;;;;;;;;;;5016476;28;20203;-73
2020/12/14 00:29:02;;;;;;;0.20;0.20;;;;;;;;;;5005153;28;20217;-73
2020/12/14 00:31:28;;;;;;;0.13;0.13;;;;;;;;;;5019994;28;20202;-73
2020/12/14 00:33:54;;;;;;;0.20;0.20;;;;;;;;;;5006970;28;20441;-73
2020/12/14 00:36:22;;;;;;;0.17;0.17;;;;;;;;;;5013437;28;20217;-73
2020/12/14 00:38:48;;;;;;;2.73;2.63;;;;;;;;;;5001958;28;20580;-74
2020/12/14 00:41:16;;;;;;;0.40;0.40;;;;;;;;;;5033829;28;20241;-73
2020/12/14 00:43:43;;;;;;;0.50;0.50;;;;;;;;;;5000888;28;20203;-73
2020/12/14 00:46:10;;;;;;;1.23;1.23;;;;;;;;;;5001632;28;20207;-73
2020/12/14 00:48:37;;;;;;;0.20;0.20;;;;;;;;;;5002142;28;20324;-73
2020/12/14 00:51:03;;;;;;;0.20;0.20;;;;;;;;;;5016045;28;20213;-74
2020/12/14 00:53:32;;;;;;;0.20;0.20;;;;;;;;;;5017955;28;20527;-73
2020/12/14 00:56:00;;;;;;;0.17;0.17;;;;;;;;;;5037148;28;20214;-73
2020/12/14 00:58:26;;;;;;;0.40;0.40;;;;;;;;;;5004435;28;20209;-73
2020/12/14 01:00:53;;;;;;;0.30;0.30;;;;;;;;;;5015864;28;20394;-73
2020/12/14 01:03:19;;;;;;;0.17;0.17;;;;;;;;;;5015447;28;20232;-73
2020/12/14 01:05:46;;;;;;;0.97;0.97;;;;;;;;;;5017388;28;20206;-73
2020/12/14 01:08:12;;;;;;;3.90;3.70;;;;;;;;;;5002484;28;20378;-73
2020/12/14 01:10:39;;;;;;;0.13;0.13;;;;;;;;;;5019424;28;20209;-73
2020/12/14 01:13:05;;;;;;;0.20;0.20;;;;;;;;;;5003238;28;20231;-73
2020/12/14 01:15:32;;;;;;;0.20;0.20;;;;;;;;;;4983830;28;20466;-73
2020/12/14 01:17:59;;;;;;;0.20;0.20;;;;;;;;;;4984754;28;20224;-74
2020/12/14 01:20:25;;;;;;;0.20;0.20;;;;;;;;;;5010255;28;20252;-73
2020/12/14 01:22:51;;;;;;;0.20;0.20;;;;;;;;;;5015476;28;20198;-73
2020/12/14 01:25:18;;;;;;;1.20;1.20;;;;;;;;;;5006175;28;20256;-74
2020/12/14 01:27:45;;;;;;;4.10;3.90;;;;;;;;;;5015581;28;20417;-73
2020/12/14 01:30:11;;;;;;;0.20;0.20;;;;;;;;;;5022010;28;20202;-73
2020/12/14 01:32:38;;;;;;;0.77;0.77;;;;;;;;;;5015271;28;20466;-74
2020/12/14 01:35:04;;;;;;;0.27;0.27;;;;;;;;;;5006588;28;20202;-73
2020/12/14 01:37:31;;;;;;;4.23;3.97;;;;;;;;;;4996597;28;20287;-73
2020/12/14 01:39:57;;;;;;;1.70;1.60;;;;;;;;;;5015070;28;20210;-73
2020/12/14 01:42:24;;;;;;;0.30;0.30;;;;;;;;;;5015949;28;20435;-73
2020/12/14 01:44:51;;;;;;;3.17;2.97;;;;;;;;;;5007713;28;20239;-73
2020/12/14 01:47:20;;;;;;;0.20;0.20;;;;;;;;;;5013725;28;20210;-74
2020/12/14 01:49:47;;;;;;;0.53;0.53;;;;;;;;;;5032909;28;20276;-73
2020/12/14 01:52:13;;;;;;;0.20;0.20;;;;;;;;;;5008559;28;20205;-73
2020/12/14 01:54:40;;;;;;;0.20;0.20;;;;;;;;;;5030075;28;20541;-74
2020/12/14 01:57:06;;;;;;;0.20;0.20;;;;;;;;;;5015050;28;20202;-73
2020/12/14 01:59:33;;;;;;;1.13;1.13;;;;;;;;;;5014850;28;20198;-74
2020/12/14 02:02:00;;;;;;;0.20;0.20;;;;;;;;;;5016145;28;20497;-74
2020/12/14 02:04:27;;;;;;;0.20;0.20;;;;;;;;;;5005765;28;20223;-74
2020/12/14 02:06:53;;;;;;;0.30;0.30;;;;;;;;;;5015403;28;20423;-73
2020/12/14 02:09:20;;;;;;;0.40;0.40;;;;;;;;;;5010669;28;20201;-74
2020/12/14 02:11:46;;;;;;;9.03;6.40;;;;;;;;;;5013506;28;20482;-74
2020/12/14 02:14:12;;;;;;;0.40;0.40;;;;;;;;;;5014653;28;20229;-74
2020/12/14 02:16:39;;;;;;;0.50;0.50;;;;;;;;;;4999531;28;20237;-74
2020/12/14 02:19:06;;;;;;;0.20;0.20;;;;;;;;;;5003043;28;20239;-74
2020/12/14 02:21:32;;;;;;;0.50;0.50;;;;;;;;;;4987879;28;20394;-74
2020/12/14 02:23:58;;;;;;;0.23;0.23;;;;;;;;;;5001712;28;20222;-74
2020/12/14 02:26:26;;;;;;;0.20;0.20;;;;;;;;;;5001202;28;20538;-74
2020/12/14 02:28:52;;;;;;;0.20;0.20;;;;;;;;;;5006642;28;20243;-74
2020/12/14 02:31:19;;;;;;;1.17;1.17;;;;;;;;;;5014784;28;20404;-74
2020/12/14 02:33:45;;;;;;;0.20;0.20;;;;;;;;;;5020005;28;20245;-74
2020/12/14 02:36:12;;;;;;;0.20;0.20;;;;;;;;;;5014447;28;20248;-74
2020/12/14 02:38:38;;;;;;;0.17;0.17;;;;;;;;;;5014806;28;20573;-74
2020/12/14 02:41:05;;;;;;;9.60;1.20;;;;;;;;;;5009704;28;20230;-74
2020/12/14 02:43:32;;;;;;;0.30;0.30;;;;;;;;;;5030501;28;20218;-74
2020/12/14 02:45:58;;;;;;;0.20;0.20;;;;;;;;;;5012215;28;20240;-74
2020/12/14 02:48:25;;;;;;;0.60;0.60;;;;;;;;;;4985768;28;20446;-74
2020/12/14 02:50:51;;;;;;;1.77;1.77;;;;;;;;;;5014612;28;20273;-74
2020/12/14 02:53:17;;;;;;;0.20;0.20;;;;;;;;;;5036548;28;20225;-74
2020/12/14 02:55:44;;;;;;;2.63;2.53;;;;;;;;;;5014129;28;20232;-74
2020/12/14 02:58:10;;;;;;;0.20;0.20;;;;;;;;;;4980835;28;20233;-74
2020/12/14 03:00:38;;;;;;;0.20;0.20;;;;;;;;;;5008591;28;20477;-74
2020/12/14 03:03:04;;;;;;;0.30;0.30;;;;;;;;;;5002858;28;20286;-74
2020/12/14 03:05:30;;;;;;;0.20;0.20;;;;;;;;;;5004487;28;20199;-74
2020/12/14 03:07:56;;;;;;;0.20;0.20;;;;;;;;;;5026738;28;20205;-74
2020/12/14 03:10:23;;;;;;;0.20;0.20;;;;;;;;;;4996358;28;20237;-74
2020/12/14 03:12:49;;;;;;;0.80;0.80;;;;;;;;;;5012057;28;20485;-74
2020/12/14 03:15:16;;;;;;;0.30;0.30;;;;;;;;;;4999252;28;20228;-74
2020/12/14 03:17:43;;;;;;;0.70;0.70;;;;;;;;;;4997000;28;20229;-74
2020/12/14 03:20:10;;;;;;;0.20;0.20;;;;;;;;;;5013495;28;20273;-74
2020/12/14 03:22:36;;;;;;;0.83;0.83;;;;;;;;;;4996008;28;20206;-74
2020/12/14 03:25:03;;;;;;;0.20;0.20;;;;;;;;;;5010561;28;20234;-74
2020/12/14 03:27:29;;;;;;;0.20;0.20;;;;;;;;;;5012202;28;20229;-74
2020/12/14 03:29:56;;;;;;;2.93;2.83;;;;;;;;;;5009458;28;20244;-74
2020/12/14 03:32:22;;;;;;;0.20;0.20;;;;;;;;;;5013065;28;20205;-74
2020/12/14 03:34:50;;;;;;;0.60;0.60;;;;;;;;;;5010650;28;20250;-74
2020/12/14 03:37:16;;;;;;;2.93;2.83;;;;;;;;;;4995670;28;20239;-74
2020/12/14 03:39:42;;;;;;;0.10;0.10;;;;;;;;;;4999556;28;20245;-74
2020/12/14 03:42:09;;;;;;;0.43;0.43;;;;;;;;;;5006619;28;20234;-74
2020/12/14 03:44:35;;;;;;;0.20;0.20;;;;;;;;;;5009723;28;20232;-72
2020/12/14 03:47:02;;;;;;;0.20;0.20;;;;;;;;;;5012110;28;20393;-74
2020/12/14 03:49:28;;;;;;;0.20;0.20;;;;;;;;;;4992434;28;20225;-74
2020/12/14 03:51:56;;;;;;;1.50;1.50;;;;;;;;;;5009607;28;20473;-74
2020/12/14 03:54:22;;;;;;;4.80;4.60;;;;;;;;;;5028956;28;20528;-74
2020/12/14 03:56:48;;;;;;;0.20;0.20;;;;;;;;;;5011138;28;20209;-74
2020/12/14 03:59:15;;;;;;;0.20;0.20;;;;;;;;;;5008968;28;21432;-74
2020/12/14 04:01:41;;;;;;;0.13;0.13;;;;;;;;;;4996818;28;20257;-74
2020/12/14 04:04:07;;;;;;;0.20;0.20;;;;;;;;;;4996362;28;20459;-74
2020/12/14 04:06:33;;;;;;;0.20;0.20;;;;;;;;;;4998787;28;20235;-74
2020/12/14 04:09:01;;;;;;;0.30;0.30;;;;;;;;;;5008108;28;20218;-74
2020/12/14 04:11:27;;;;;;;2.93;2.73;;;;;;;;;;5012027;28;20233;-74
2020/12/14 04:13:54;;;;;;;0.33;0.33;;;;;;;;;;5009218;28;20501;-74
2020/12/14 04:16:20;;;;;;;0.20;0.20;;;;;;;;;;4997331;28;20237;-74
2020/12/14 04:18:46;;;;;;;0.40;0.40;;;;;;;;;;5003679;28;20214;-74
2020/12/14 04:21:13;;;;;;;0.20;0.20;;;;;;;;;;4995722;28;20214;-74
2020/12/14 04:23:39;;;;;;;0.20;0.20;;;;;;;;;;5008073;28;20205;-74
2020/12/14 04:26:07;;;;;;;0.20;0.20;;;;;;;;;;5013278;28;20541;-74
2020/12/14 04:28:33;;;;;;;4.40;3.03;;;;;;;;;;5010690;28;20230;-74
2020/12/14 04:31:00;;;;;;;0.20;0.20;;;;;;;;;;5027044;28;20227;-74
2020/12/14 04:33:26;;;;;;;0.33;0.33;;;;;;;;;;5009556;28;20218;-74
2020/12/14 04:35:53;;;;;;;0.30;0.30;;;;;;;;;;5009979;28;20201;-74
2020/12/14 04:38:19;;;;;;;0.20;0.20;;;;;;;;;;5010349;28;20257;-74
2020/12/14 04:40:46;;;;;;;0.57;0.57;;;;;;;;;;5009227;28;20277;-74
2020/12/14 04:43:15;;;;;;;0.50;0.50;;;;;;;;;;5008808;28;20205;-74
2020/12/14 04:45:41;;;;;;;0.27;0.27;;;;;;;;;;5007809;28;20225;-73
2020/12/14 04:48:08;;;;;;;0.20;0.20;;;;;;;;;;4998976;28;20236;-74
2020/12/14 04:50:35;;;;;;;0.20;0.20;;;;;;;;;;5007516;28;20233;-74
2020/12/14 04:53:04;;;;;;;0.20;0.20;;;;;;;;;;5007594;28;20237;-74
2020/12/14 04:55:33;;;;;;;0.20;0.20;;;;;;;;;;5007562;28;20493;-74
2020/12/14 04:58:00;;;;;;;3.10;2.97;;;;;;;;;;4999525;28;20232;-74
2020/12/14 05:00:27;;;;;;;0.20;0.20;;;;;;;;;;5006203;28;20240;-74
2020/12/14 05:02:55;;;;;;;0.20;0.20;;;;;;;;;;4990938;28;20245;-74
2020/12/14 05:05:21;;;;;;;0.20;0.20;;;;;;;;;;4978712;28;20198;-74
2020/12/14 05:07:48;;;;;;;0.20;0.20;;;;;;;;;;5008907;28;20206;-74
2020/12/14 05:10:14;;;;;;;0.20;0.20;;;;;;;;;;5007656;28;20241;-74
2020/12/14 05:12:40;;;;;;;0.67;0.67;;;;;;;;;;4996034;28;20199;-75
2020/12/14 05:15:17;;;;;;;0.57;0.57;;;;;;;;;;4993891;28;20548;-75
2020/12/14 05:17:45;;;;;;;0.73;0.73;;;;;;;;;;5004321;28;20237;-74
2020/12/14 05:20:15;;;;;;;0.60;0.40;;;;;;;;;;4971637;28;20210;-74
2020/12/14 05:22:54;;;;;;;0.87;0.87;;;;;;;;;;4990291;28;20226;-74
2020/12/14 05:25:20;;;;;;;0.20;0.20;;;;;;;;;;4995749;28;20493;-74
2020/12/14 05:27:47;;;;;;;0.20;0.20;;;;;;;;;;5010062;28;20240;-74
2020/12/14 05:30:14;;;;;;;1.40;1.40;;;;;;;;;;5008206;28;20206;-74
2020/12/14 05:32:40;;;;;;;0.20;0.20;;;;;;;;;;5010704;28;20504;-74
2020/12/14 05:35:10;;;;;;;1.37;1.03;;;;;;;;;;4995919;28;20252;-74
2020/12/14 05:37:38;;;;;;;0.10;0.10;;;;;;;;;;4991781;28;20489;-75
2020/12/14 05:40:09;;;;;;;0.20;0.20;;;;;;;;;;4976085;28;20206;-74
2020/12/14 05:42:40;;;;;;;0.20;0.20;;;;;;;;;;4994351;28;20475;-74
2020/12/14 05:45:10;;;;;;;0.20;0.20;;;;;;;;;;5029212;28;20198;-74
2020/12/14 05:47:37;;;;;;;0.20;0.20;;;;;;;;;;4994311;28;20235;-74
2020/12/14 05:50:07;;;;;;;0.13;0.13;;;;;;;;;;5007465;28;20282;-74
2020/12/14 05:52:36;;;;;;;3.63;1.50;;;;;;;;;;4996929;28;20309;-74
2020/12/14 05:55:02;;;;;;;0.40;0.40;;;;;;;;;;5026473;28;20516;-75
2020/12/14 05:57:30;;;;;;;0.20;0.20;;;;;;;;;;5023196;28;20237;-74
2020/12/14 05:59:58;;;;;;;0.20;0.20;;;;;;;;;;5010142;28;20292;-74
2020/12/14 06:02:25;;;;;;;0.20;0.20;;;;;;;;;;4991185;28;20232;-74
2020/12/14 06:04:54;;;;;;;0.10;0.10;;;;;;;;;;4991955;28;20221;-74
2020/12/14 06:07:23;;;;;;;0.30;0.30;;;;;;;;;;4994220;28;20206;-75
2020/12/14 06:10:00;;;;;;;0.50;0.50;;;;;;;;;;4993580;28;20210;-74
2020/12/14 06:12:29;;;;;;;4.10;3.87;;;;;;;;;;4998712;28;20245;-74
2020/12/14 06:14:58;;;;;;;0.20;0.20;;;;;;;;;;4993759;28;20521;-75
2020/12/14 06:17:26;;;;;;;0.20;0.20;;;;;;;;;;4989055;28;20242;-74
2020/12/14 06:19:52;;;;;;;0.20;0.20;;;;;;;;;;4996484;28;20206;-74
2020/12/14 06:22:20;;;;;;;0.30;0.30;;;;;;;;;;5005503;28;20229;-74
2020/12/14 06:24:46;;;;;;;1.00;0.43;;;;;;;;;;4996597;28;20211;-74
2020/12/14 06:27:14;;;;;;;0.20;0.20;;;;;;;;;;5006332;28;20212;-73
2020/12/14 06:29:41;;;;;;;0.20;0.20;;;;;;;;;;4992893;28;20246;-73
2020/12/14 06:32:22;;;;;;;3.60;3.30;;;;;;;;;;5009246;28;20242;-74
2020/12/14 06:34:48;;;;;;;0.20;0.20;;;;;;;;;;4994311;28;20289;-74
2020/12/14 06:37:18;;;;;;;0.20;0.20;;;;;;;;;;5007201;28;20229;-75
2020/12/14 06:39:47;;;;;;;0.30;0.30;;;;;;;;;;4997130;28;20264;-74
2020/12/14 06:42:24;;;;;;;0.20;0.20;;;;;;;;;;5022993;28;20233;-74
2020/12/14 06:45:05;;;;;;;0.20;0.20;;;;;;;;;;5009202;28;20488;-74
2020/12/14 06:47:39;;;;;;;0.20;0.20;;;;;;;;;;4990031;28;20296;-74
2020/12/14 06:50:20;;;;;;;0.20;0.20;;;;;;;;;;4992869;28;20201;-75
2020/12/14 06:52:46;;;;;;;0.20;0.20;;;;;;;;;;4991953;28;20227;-74
2020/12/14 06:55:13;;;;;;;3.60;3.40;;;;;;;;;;5004716;28;20321;-74
2020/12/14 06:57:40;;;;;;;0.10;0.10;;;;;;;;;;4993778;28;20234;-74
2020/12/14 07:00:07;;;;;;;0.20;0.20;;;;;;;;;;5004532;28;20202;-73
2020/12/14 07:02:37;;;;;;;0.20;0.20;;;;;;;;;;4995417;28;20222;-73
2020/12/14 07:05:04;;;;;;;0.30;0.30;;;;;;;;;;4997823;28;20507;-75
2020/12/14 07:07:32;;;;;;;0.20;0.20;;;;;;;;;;5013315;28;20274;-73
2020/12/14 07:10:16;;;;;;;0.20;0.20;;;;;;;;;;5013579;28;20306;-75
2020/12/14 07:12:44;;;;;;;0.20;0.20;;;;;;;;;;5014239;28;20512;-73
2020/12/14 07:15:22;;;;;;;0.20;0.20;;;;;;;;;;5015417;28;20249;-73
2020/12/14 07:17:59;;;;;;;1.03;1.03;;;;;;;;;;5012026;28;20245;-74
2020/12/14 07:20:25;;;;;;;0.20;0.20;;;;;;;;;;5002345;28;20466;-74
2020/12/14 07:22:52;;;;;;;3.40;1.00;;;;;;;;;;4982966;28;20452;-77
2020/12/14 07:25:20;;;;;;;0.20;0.20;;;;;;;;;;5011914;28;20194;-79
2020/12/14 07:27:47;;;;;;;0.20;0.20;;;;;;;;;;5031836;28;20230;-74
2020/12/14 07:30:14;;;;;;;0.67;0.67;;;;;;;;;;4998389;28;20427;-74
2020/12/14 07:32:41;;;;;;;0.20;0.20;;;;;;;;;;4999655;28;20221;-74
2020/12/14 07:35:08;;;;;;;0.40;0.40;;;;;;;;;;5011931;28;20218;-73
2020/12/14 07:37:34;;;;;;;0.53;0.53;;;;;;;;;;4982885;28;20237;-74
2020/12/14 07:40:01;;;;;;;0.47;0.47;;;;;;;;;;4999687;28;20473;-74
2020/12/14 07:42:28;;;;;;;3.13;0.97;;;;;;;;;;4998611;28;20238;-74
2020/12/14 07:45:06;;;;;;;0.20;0.20;;;;;;;;;;5011832;28;20222;-74
2020/12/14 07:47:32;;;;;;;0.20;0.20;;;;;;;;;;4996171;28;20208;-75
2020/12/14 07:50:04;;;;;;;0.20;0.20;;;;;;;;;;5003646;28;20245;-75
2020/12/14 07:52:33;;;;;;;0.23;0.23;;;;;;;;;;4998184;28;20234;-74
2020/12/14 07:54:59;;;;;;;5.20;4.13;;;;;;;;;;5025362;28;20524;-74
2020/12/14 07:57:30;;;;;;;1.03;1.03;;;;;;;;;;5003547;28;20311;-74
2020/12/14 07:59:56;;;;;;;0.20;0.20;;;;;;;;;;5003569;28;20241;-74
2020/12/14 08:02:24;;;;;;;0.20;0.20;;;;;;;;;;5013456;28;20255;-74
2020/12/14 08:04:50;;;;;;;1.37;1.33;;;;;;;;;;5035041;28;20419;-75
2020/12/14 08:07:17;;;;;;;0.43;0.43;;;;;;;;;;5002418;28;20208;-74
2020/12/14 08:09:45;;;;;;;1.23;1.23;;;;;;;;;;5016024;28;20214;-74
2020/12/14 08:12:13;;;;;;;0.20;0.20;;;;;;;;;;5016722;28;20238;-75
2020/12/14 08:14:40;;;;;;;0.27;0.27;;;;;;;;;;5001585;28;20284;-74
2020/12/14 08:17:11;;;;;;;0.20;0.20;;;;;;;;;;5002240;28;20230;-74
2020/12/14 08:19:38;;;;;;;0.20;0.20;;;;;;;;;;5002921;28;20205;-73
2020/12/14 08:22:05;;;;;;;0.30;0.30;;;;;;;;;;5004448;28;20210;-73
2020/12/14 08:24:32;;;;;;;0.70;0.53;;;;;;;;;;4977794;28;20225;-74
2020/12/14 08:26:59;;;;;;;0.53;0.53;;;;;;;;;;5000479;28;20206;-75
2020/12/14 08:29:27;;;;;;;0.20;0.20;;;;;;;;;;5017041;28;20202;-75
2020/12/14 08:31:55;;;;;;;0.10;0.10;;;;;;;;;;5030749;28;20206;-74
2020/12/14 08:34:32;;;;;;;0.20;0.20;;;;;;;;;;5014247;28;20298;-75
2020/12/14 08:36:59;;;;;;;0.47;0.47;;;;;;;;;;4999078;28;20202;-77
2020/12/14 08:39:26;;;;;;;0.20;0.20;;;;;;;;;;5016387;28;20201;-77
2020/12/14 08:42:09;;;;;;;3.77;3.60;;;;;;;;;;5002076;28;20209;-75
2020/12/14 08:44:36;;;;;;;0.50;0.50;;;;;;;;;;5002232;28;20249;-75
2020/12/14 08:47:02;;;;;;;0.10;0.10;;;;;;;;;;5015620;28;20272;-75
2020/12/14 08:49:30;;;;;;;4.20;3.80;;;;;;;;;;5015096;28;20226;-75
2020/12/14 08:51:57;;;;;;;0.20;0.20;;;;;;;;;;5015661;28;20214;-75
2020/12/14 08:54:26;;;;;;;0.20;0.20;;;;;;;;;;5032541;28;20217;-75
2020/12/14 08:56:52;;;;;;;0.83;0.80;;;;;;;;;;5003377;28;20269;-75
2020/12/14 08:59:21;;;;;;;0.27;0.27;;;;;;;;;;4983810;28;20269;-75
2020/12/14 09:01:57;;;;;;;0.20;0.20;;;;;;;;;;5004523;28;20277;-75
2020/12/14 09:04:30;;;;;;;0.10;0.10;;;;;;;;;;5003897;28;20222;-75
2020/12/14 09:06:56;;;;;;;1.07;1.07;;;;;;;;;;5002390;28;20286;-75
2020/12/14 09:09:29;;;;;;;2.50;2.30;;;;;;;;;;5001924;28;20236;-74
2020/12/14 09:11:56;;;;;;;0.30;0.30;;;;;;;;;;5000747;28;20478;-75
2020/12/14 09:14:23;;;;;;;0.20;0.20;;;;;;;;;;5004117;28;20289;-74
2020/12/14 09:16:50;;;;;;;0.20;0.20;;;;;;;;;;5001849;28;20323;-77
2020/12/14 09:19:20;;;;;;;0.20;0.20;;;;;;;;;;5002337;28;20206;-74
2020/12/14 09:21:47;;;;;;;0.23;0.23;;;;;;;;;;5013173;28;20206;-74
2020/12/14 09:24:14;;;;;;;0.20;0.20;;;;;;;;;;5035328;28;20376;-74
2020/12/14 09:26:42;;;;;;;0.20;0.20;;;;;;;;;;4997452;28;20206;-75
2020/12/14 09:29:08;;;;;;;0.23;0.23;;;;;;;;;;5032360;28;20199;-75
2020/12/14 09:31:35;;;;;;;0.20;0.20;;;;;;;;;;4999689;28;20281;-75
2020/12/14 09:34:01;;;;;;;0.30;0.30;;;;;;;;;;5001684;28;20238;-75
2020/12/14 09:36:27;;;;;;;0.40;0.40;;;;;;;;;;5001429;28;20201;-75
2020/12/14 09:38:54;;;;;;;0.20;0.20;;;;;;;;;;4999858;28;20234;-75
2020/12/14 09:41:21;;;;;;;0.40;0.40;;;;;;;;;;5000415;28;20212;-75
2020/12/14 09:43:49;;;;;;;0.20;0.20;;;;;;;;;;5013928;28;20523;-75
2020/12/14 09:46:16;;;;;;;0.70;0.70;;;;;;;;;;5000945;28;20232;-74
2020/12/14 09:48:42;;;;;;;0.73;0.73;;;;;;;;;;5035443;28;20218;-74
2020/12/14 09:51:09;;;;;;;0.20;0.20;;;;;;;;;;5000725;28;20240;-75
2020/12/14 09:53:35;;;;;;;0.30;0.30;;;;;;;;;;5033360;28;20229;-73
2020/12/14 09:56:01;;;;;;;0.10;0.10;;;;;;;;;;5003109;28;20533;-74
2020/12/14 09:58:30;;;;;;;0.20;0.20;;;;;;;;;;5000757;28;20470;-74
2020/12/14 10:00:57;;;;;;;0.20;0.20;;;;;;;;;;5010330;28;20204;-74
2020/12/14 10:03:24;;;;;;;0.20;0.20;;;;;;;;;;5010464;28;20245;-74
2020/12/14 10:05:51;;;;;;;0.20;0.20;;;;;;;;;;5020425;28;20214;-74
2020/12/14 10:08:18;;;;;;;0.17;0.17;;;;;;;;;;5014569;28;20249;-74
2020/12/14 10:10:44;;;;;;;0.20;0.20;;;;;;;;;;5008544;28;20479;-74
2020/12/14 10:13:12;;;;;;;0.20;0.20;;;;;;;;;;5010252;28;20277;-74
2020/12/14 10:15:38;;;;;;;0.13;0.13;;;;;;;;;;5030737;28;20241;-75
2020/12/14 10:18:06;;;;;;;0.30;0.30;;;;;;;;;;4980982;28;20303;-75
2020/12/14 10:20:33;;;;;;;0.30;0.30;;;;;;;;;;5015178;28;20249;-75
2020/12/14 10:22:59;;;;;;;0.20;0.20;;;;;;;;;;5013254;28;20207;-75
2020/12/14 10:25:26;;;;;;;0.20;0.20;;;;;;;;;;5003217;28;20200;-74
2020/12/14 10:27:52;;;;;;;0.20;0.20;;;;;;;;;;5014689;28;20214;-75
2020/12/14 10:30:19;;;;;;;0.20;0.20;;;;;;;;;;5003119;28;20500;-76
2020/12/14 10:32:46;;;;;;;1.30;1.27;;;;;;;;;;5010559;28;20318;-76
2020/12/14 10:35:13;;;;;;;0.13;0.13;;;;;;;;;;4999086;28;20219;-75
2020/12/14 10:37:40;;;;;;;0.20;0.20;;;;;;;;;;5000765;28;20238;-75
2020/12/14 10:40:07;;;;;;;0.57;0.57;;;;;;;;;;5015040;28;20202;-75
2020/12/14 10:42:33;;;;;;;0.53;0.53;;;;;;;;;;4999756;28;20198;-75
2020/12/14 10:45:00;;;;;;;2.07;1.17;;;;;;;;;;4999916;28;20205;-75
2020/12/14 10:47:26;;;;;;;0.20;0.20;;;;;;;;;;4999240;28;20222;-75
2020/12/14 10:49:53;;;;;;;0.40;0.40;;;;;;;;;;4994012;28;20274;-75
2020/12/14 10:52:20;;;;;;;0.50;0.50;;;;;;;;;;4999995;28;20204;-75
2020/12/14 10:54:46;;;;;;;1.43;1.43;;;;;;;;;;5030107;28;20286;-74
2020/12/14 10:57:13;;;;;;;0.10;0.10;;;;;;;;;;4981826;28;20262;-75
2020/12/14 10:59:39;;;;;;;0.80;0.67;;;;;;;;;;5003619;28;20333;-75
2020/12/14 11:02:06;;;;;;;0.73;0.70;;;;;;;;;;5013480;28;20278;-75
2020/12/14 11:04:32;;;;;;;1.60;1.50;;;;;;;;;;5031022;28;20222;-76
2020/12/14 11:06:59;;;;;;;0.27;0.27;;;;;;;;;;5013195;28;20207;-75
2020/12/14 11:09:27;;;;;;;0.30;0.30;;;;;;;;;;5013458;28;20203;-76
2020/12/14 11:11:53;;;;;;;0.23;0.23;;;;;;;;;;5014210;28;20234;-78
2020/12/14 11:14:20;;;;;;;0.10;0.10;;;;;;;;;;5011748;28;20238;-75
2020/12/14 11:16:46;;;;;;;0.43;0.43;;;;;;;;;;4999655;28;20508;-75
2020/12/14 11:19:13;;;;;;;0.13;0.13;;;;;;;;;;4998948;28;20409;-74
2020/12/14 11:21:39;;;;;;;0.20;0.20;;;;;;;;;;5013535;28;20205;-74
2020/12/14 11:24:07;;;;;;;1.13;0.97;;;;;;;;;;4998509;28;20274;-74
2020/12/14 11:26:34;;;;;;;0.30;0.30;;;;;;;;;;5019395;28;20198;-75
2020/12/14 11:29:01;;;;;;;0.40;0.40;;;;;;;;;;4977979;28;20580;-75
2020/12/14 11:31:27;;;;;;;0.20;0.20;;;;;;;;;;5015304;28;20227;-75
2020/12/14 11:33:53;;;;;;;0.87;0.87;;;;;;;;;;5000809;28;20251;-75
2020/12/14 11:36:22;;;;;;;0.20;0.20;;;;;;;;;;4984851;28;20212;-74
2020/12/14 11:38:49;;;;;;;0.30;0.30;;;;;;;;;;5004582;28;20316;-75
2020/12/14 11:41:15;;;;;;;3.30;3.20;;;;;;;;;;5023910;28;20292;-74
2020/12/14 11:43:43;;;;;;;2.43;2.10;;;;;;;;;;5024376;28;20215;-74
2020/12/14 11:46:09;;;;;;;0.30;0.30;;;;;;;;;;4981638;28;20224;-74
2020/12/14 11:48:36;;;;;;;0.13;0.13;;;;;;;;;;5003312;28;20204;-74
2020/12/14 11:51:03;;;;;;;1.23;1.23;;;;;;;;;;5016326;28;20238;-74
2020/12/14 11:53:29;;;;;;;0.97;0.97;;;;;;;;;;5018119;28;20205;-74
2020/12/14 11:55:56;;;;;;;0.63;0.63;;;;;;;;;;5002638;28;20223;-75
2020/12/14 11:58:22;;;;;;;0.67;0.67;;;;;;;;;;4985187;28;20269;-75
2020/12/14 12:00:49;;;;;;;0.73;0.73;;;;;;;;;;4996094;28;20205;-73
2020/12/14 12:03:21;;;;;;;2.17;2.07;;;;;;;;;;5004407;28;20248;-74
2020/12/14 12:05:47;;;;;;;0.20;0.20;;;;;;;;;;5002813;28;20208;-74
2020/12/14 12:08:17;;;;;;;0.10;0.10;;;;;;;;;;5005982;28;20315;-73
2020/12/14 12:10:43;;;;;;;0.10;0.10;;;;;;;;;;5002922;28;20204;-72
2020/12/14 12:13:09;;;;;;;0.10;0.10;;;;;;;;;;5034493;28;20523;-73
2020/12/14 12:15:36;;;;;;;0.57;0.30;;;;;;;;;;5013161;28;20224;-74
2020/12/14 12:18:04;;;;;;;0.20;0.20;;;;;;;;;;5003234;28;20296;-74
2020/12/14 12:20:30;;;;;;;4.83;0.77;;;;;;;;;;5027908;28;20267;-73
2020/12/14 12:22:58;;;;;;;0.10;0.10;;;;;;;;;;5016300;28;20205;-73
2020/12/14 12:25:25;;;;;;;0.10;0.10;;;;;;;;;;5002429;28;20201;-73
2020/12/14 12:27:51;;;;;;;0.40;0.40;;;;;;;;;;5016049;28;20204;-73
2020/12/14 12:30:18;;;;;;;0.20;0.20;;;;;;;;;;5016118;28;20197;-74
2020/12/14 12:32:44;;;;;;;0.20;0.20;;;;;;;;;;5004849;28;20213;-73
2020/12/14 12:35:11;;;;;;;0.40;0.40;;;;;;;;;;5012809;28;20458;-75
2020/12/14 12:37:38;;;;;;;0.30;0.30;;;;;;;;;;5001755;28;20253;-73
2020/12/14 12:40:06;;;;;;;0.20;0.20;;;;;;;;;;5016578;28;20212;-73
2020/12/14 12:42:33;;;;;;;2.30;1.33;;;;;;;;;;5004952;28;20237;-74
2020/12/14 12:44:59;;;;;;;0.20;0.20;;;;;;;;;;5016064;28;20263;-74
2020/12/14 12:47:26;;;;;;;0.20;0.20;;;;;;;;;;5015144;28;20271;-74
2020/12/14 12:49:52;;;;;;;0.97;0.53;;;;;;;;;;5016973;28;20333;-73
2020/12/14 12:52:20;;;;;;;2.20;0.67;;;;;;;;;;5001859;28;20204;-73
2020/12/14 12:54:46;;;;;;;0.60;0.60;;;;;;;;;;5004622;28;20255;-74
2020/12/14 12:57:13;;;;;;;3.20;3.10;;;;;;;;;;5004338;28;20267;-73
2020/12/14 12:59:39;;;;;;;0.20;0.20;;;;;;;;;;4999829;28;20263;-73
2020/12/14 13:02:06;;;;;;;0.30;0.30;;;;;;;;;;5001319;28;20203;-74
2020/12/14 13:04:32;;;;;;;0.20;0.20;;;;;;;;;;4983351;28;20521;-77
2020/12/14 13:06:59;;;;;;;0.20;0.20;;;;;;;;;;5005500;28;20271;-73
2020/12/14 13:09:26;;;;;;;0.10;0.10;;;;;;;;;;5001673;28;20204;-74
2020/12/14 13:11:53;;;;;;;0.20;0.20;;;;;;;;;;5004274;28;20278;-76
2020/12/14 13:14:20;;;;;;;0.23;0.23;;;;;;;;;;5003462;28;20225;-74
2020/12/14 13:16:46;;;;;;;3.63;2.10;;;;;;;;;;5030145;28;20203;-72
2020/12/14 13:19:13;;;;;;;0.10;0.10;;;;;;;;;;5016241;28;20204;-73
2020/12/14 13:21:40;;;;;;;0.20;0.20;;;;;;;;;;5014970;28;20205;-73
2020/12/14 13:24:07;;;;;;;0.10;0.10;;;;;;;;;;5013132;28;20201;-71
2020/12/14 13:26:34;;;;;;;1.13;1.03;;;;;;;;;;5002411;28;20516;-71
2020/12/14 13:29:01;;;;;;;0.10;0.10;;;;;;;;;;5035051;28;20209;-70
2020/12/14 13:31:27;;;;;;;0.20;0.20;;;;;;;;;;5000734;28;20504;-70
2020/12/14 13:33:55;;;;;;;0.20;0.20;;;;;;;;;;5032587;28;20255;-70
2020/12/14 13:36:22;;;;;;;1.40;1.40;;;;;;;;;;5011919;28;20233;-72
2020/12/14 13:38:48;;;;;;;0.20;0.20;;;;;;;;;;4978719;28;20251;-71
2020/12/14 13:41:15;;;;;;;2.10;0.57;;;;;;;;;;5002366;28;20204;-71
2020/12/14 13:43:43;;;;;;;0.20;0.20;;;;;;;;;;5014999;28;20412;-71
2020/12/14 13:46:09;;;;;;;0.20;0.20;;;;;;;;;;5032377;28;20432;-71
2020/12/14 13:48:36;;;;;;;2.70;2.50;;;;;;;;;;5015858;28;20207;-71
2020/12/14 13:51:02;;;;;;;0.53;0.53;;;;;;;;;;5003229;28;20405;-71
2020/12/14 13:53:29;;;;;;;0.30;0.30;;;;;;;;;;5001914;28;20219;-72
2020/12/14 13:55:56;;;;;;;0.17;0.17;;;;;;;;;;4999932;28;20279;-71
2020/12/14 13:58:22;;;;;;;0.37;0.37;;;;;;;;;;4975637;28;20285;-71
2020/12/14 14:00:50;;;;;;;0.40;0.40;;;;;;;;;;5014564;28;20204;-73
2020/12/14 14:03:17;;;;;;;0.93;0.70;;;;;;;;;;5014812;28;20563;-72
2020/12/14 14:05:44;;;;;;;0.43;0.43;;;;;;;;;;5014870;28;20199;-73
2020/12/14 14:08:10;;;;;;;0.63;0.63;;;;;;;;;;5014449;28;20288;-71
2020/12/14 14:10:37;;;;;;;0.20;0.20;;;;;;;;;;5000807;28;20211;-72
2020/12/14 14:13:04;;;;;;;0.60;0.60;;;;;;;;;;5014678;28;20243;-72
2020/12/14 14:15:30;;;;;;;0.20;0.20;;;;;;;;;;4978819;28;20225;-72
2020/12/14 14:17:58;;;;;;;0.17;0.17;;;;;;;;;;5013833;28;20603;-72
2020/12/14 14:20:24;;;;;;;0.20;0.20;;;;;;;;;;5015693;28;20284;-72
2020/12/14 14:22:51;;;;;;;0.60;0.60;;;;;;;;;;4999827;28;20211;-72
2020/12/14 14:25:17;;;;;;;0.50;0.50;;;;;;;;;;5014145;28;20374;-71
2020/12/14 14:27:44;;;;;;;0.10;0.10;;;;;;;;;;5019280;28;20208;-71
2020/12/14 14:30:12;;;;;;;0.20;0.20;;;;;;;;;;5015820;28;20241;-71
2020/12/14 14:32:39;;;;;;;2.13;1.93;;;;;;;;;;4998022;28;20205;-72
2020/12/14 14:35:06;;;;;;;0.10;0.10;;;;;;;;;;5014131;28;20231;-72
2020/12/14 14:37:35;;;;;;;0.30;0.30;;;;;;;;;;4999495;28;20243;-73
2020/12/14 14:40:01;;;;;;;0.30;0.30;;;;;;;;;;4981549;28;20205;-72
2020/12/14 14:42:28;;;;;;;0.43;0.43;;;;;;;;;;5014417;28;20253;-73
2020/12/14 14:44:55;;;;;;;0.10;0.10;;;;;;;;;;5017990;28;20236;-73